Historique des mesures à Cassis (13260), France
Quotidien Résumé Juillet 10, 2017 Unités:  Métrique    US   Métrique/US
« Précédent (Jour)
Suivant (Jour) »
Quotidien Hebdomadaire Mensuel Annuel Période au choix
  Maximum: Minimum: Moyenne:
Température: TemperatureC °C 21.2 °C 24.8 °C
Point de rosée: DewpointC °C 17.3 °C 18 °C
Humidité: Humidity % 53 % 63 %
Vitesse du vent: 0 km/h 0 km/h 6.1 km/h
Rafales: 0 km/h - -
Vent:- - South
Pression: PressurehPa hPa 1008.0 hPa -
Précipitations: 0.0 mm    
Historical Graphs
 
 
Mesures pour : Juillet 10, 2017
Heure Temperature Point de rosée Pression Vent Vitesse du vent Rafales Humidité Pluie (par heure) Conditions
TemperatureC °C DewpointC °C PressurehPa hPa Calm     Humidity % HourlyPrecipMM mm SoftwareType W/m2
00:10 24.4 °C 20.1 °C 1008.7 hPa Calm     77 % 0.0 mm open2300-1.11 W/m2
01:10 23.6 °C 18.9 °C 1009.0 hPa Calm     75 % 0.0 mm open2300-1.11 W/m2
02:11 23.0 °C 18.3 °C 1008.4 hPa Calm     75 % 0.0 mm open2300-1.11 W/m2
03:11 22.4 °C 17.9 °C 1008.4 hPa Calm     76 % 0.0 mm open2300-1.11 W/m2
04:11 21.9 °C 17.7 °C 1008.0 hPa NE 2.3 km/h 2.3 km/h 77 % 0.0 mm open2300-1.11 W/m2
05:11 21.4 °C 17.4 °C 1008.0 hPa Calm     78 % 0.0 mm open2300-1.11 W/m2
06:11 21.2 °C 17.4 °C 1008.0 hPa Calm     79 % 0.0 mm open2300-1.11 W/m2
07:11 21.7 °C 17.9 °C 1008.0 hPa Calm   4.7 km/h 79 % 0.0 mm open2300-1.11 W/m2
08:11 24.8 °C 19.8 °C 1008.4 hPa SSE 10.3 km/h 10.3 km/h 74 % 0.0 mm open2300-1.11 W/m2
09:11 24.8 °C 18.8 °C 1008.7 hPa WNW 7.6 km/h 7.6 km/h 69 % 0.0 mm open2300-1.11 W/m2
10:10 26.3 °C 19.4 °C 1008.7 hPa SE 5.6 km/h 10.3 km/h 66 % 0.0 mm open2300-1.11 W/m2
11:11 29.6 °C 20.7 °C 1009.0 hPa NW 12.2 km/h 13.2 km/h 59 % 0.0 mm open2300-1.11 W/m2
12:11 29.1 °C 19.4 °C 1008.4 hPa NW 5.6 km/h 5.6 km/h 56 % 0.0 mm open2300-1.11 W/m2
13:11 31.5 °C 20.7 °C 1008.4 hPa SE 5.6 km/h 20.9 km/h 53 % 0.0 mm open2300-1.11 W/m2
14:11 31.3 °C 20.6 °C 1008.7 hPa South 21.6 km/h 21.6 km/h 53 % 0.0 mm open2300-1.11 W/m2
15:11 30.3 °C 19.9 °C 1008.7 hPa SSE 2.9 km/h 9.8 km/h 54 % 0.0 mm open2300-1.11 W/m2
16:11 30.0 °C 19.4 °C 1008.7 hPa ESE 9.8 km/h 9.8 km/h 53 % 0.0 mm open2300-1.11 W/m2
17:11 28.9 °C 19.2 °C 1008.7 hPa ESE 8 km/h 26.7 km/h 56 % 0.0 mm open2300-1.11 W/m2
18:11 27.6 °C 18.8 °C 1008.4 hPa Calm   14 km/h 59 % 0.0 mm open2300-1.11 W/m2
19:11 26.7 °C 18.6 °C 1009.0 hPa Calm     61 % 0.0 mm open2300-1.11 W/m2
20:11 26.4 °C 17.8 °C 1009.0 hPa WNW 17.9 km/h 17.9 km/h 59 % 0.0 mm open2300-1.11 W/m2
21:11 24.8 °C 17.3 °C 1009.7 hPa NW 24.3 km/h 46.8 km/h 63 % 0.0 mm open2300-1.11 W/m2
22:11 24.2 °C 17.7 °C 1010.4 hPa West 16.3 km/h 30.1 km/h 67 % 0.0 mm open2300-1.11 W/m2
23:11 23.8 °C 17.5 °C 1010.7 hPa North 1.8 km/h 4.2 km/h 68 % 0.0 mm open2300-1.11 W/m2
Observations météo à CASSIS
WU-History script by Weather Underground - 1 mb